TimeEDT,TemperatureF,Dew PointF,Humidity,Sea Level PressureIn,VisibilityMPH,Wind Direction,Wind SpeedMPH,Gust SpeedMPH,PrecipitationIn,Events,Conditions,WindDirDegrees,DateUTC
12:51 AM,41.0,33.1,73,29.83,10.0,Calm,Calm,-,N/A,,Clear,0,2013-10-23 04:51:00
1:51 AM,37.0,30.9,79,29.83,10.0,Calm,Calm,-,N/A,,Clear,0,2013-10-23 05:51:00
2:51 AM,37.9,32.0,79,29.82,10.0,SW,3.5,-,N/A,,Scattered Clouds,220,2013-10-23 06:51:00
3:51 AM,37.0,33.1,86,29.81,10.0,Calm,Calm,-,N/A,,Mostly Cloudy,0,2013-10-23 07:51:00
4:51 AM,36.0,32.0,86,29.79,10.0,NNW,3.5,-,N/A,,Clear,330,2013-10-23 08:51:00
5:51 AM,35.1,30.9,85,29.79,10.0,Calm,Calm,-,N/A,,Clear,0,2013-10-23 09:51:00
6:51 AM,35.1,32.0,89,29.79,10.0,NNW,3.5,-,N/A,,Clear,330,2013-10-23 10:51:00
7:51 AM,36.0,32.0,86,29.79,10.0,Calm,Calm,-,N/A,,Clear,0,2013-10-23 11:51:00
8:51 AM,39.0,33.1,79,29.80,10.0,Calm,Calm,-,N/A,,Clear,0,2013-10-23 12:51:00
9:51 AM,41.0,34.0,76,29.78,10.0,Calm,Calm,-,N/A,,Partly Cloudy,0,2013-10-23 13:51:00
10:51 AM,46.9,36.0,66,29.75,10.0,Calm,Calm,-,N/A,,Clear,0,2013-10-23 14:51:00
11:51 AM,54.0,33.1,45,29.70,10.0,Variable,3.5,-,N/A,,Clear,0,2013-10-23 15:51:00
12:51 PM,53.1,28.9,40,29.67,10.0,Calm,Calm,-,0.00,,Overcast,0,2013-10-23 16:51:00
1:51 PM,52.0,32.0,47,29.67,10.0,WSW,3.5,-,N/A,,Overcast,240,2013-10-23 17:51:00
2:51 PM,51.1,30.9,46,29.67,10.0,NNW,4.6,16.1,0.00,,Overcast,340,2013-10-23 18:51:00
3:51 PM,51.1,32.0,48,29.66,10.0,NW,5.8,-,N/A,,Overcast,320,2013-10-23 19:51:00
4:51 PM,50.0,34.0,54,29.68,10.0,NW,8.1,-,N/A,,Mostly Cloudy,310,2013-10-23 20:51:00
5:51 PM,48.0,33.1,56,29.70,10.0,NW,10.4,-,N/A,,Mostly Cloudy,320,2013-10-23 21:51:00
6:51 PM,46.0,34.0,63,29.73,10.0,NW,8.1,-,N/A,,Overcast,310,2013-10-23 22:51:00
7:51 PM,45.0,34.0,65,29.75,10.0,West,4.6,-,N/A,,Overcast,280,2013-10-23 23:51:00
8:51 PM,41.0,34.0,76,29.77,10.0,WSW,4.6,-,N/A,,Mostly Cloudy,250,2013-10-24 00:51:00
9:51 PM,39.9,33.1,77,29.78,10.0,Calm,Calm,-,N/A,,Clear,0,2013-10-24 01:51:00
10:51 PM,39.9,33.1,77,29.80,10.0,Calm,Calm,-,N/A,,Clear,0,2013-10-24 02:51:00
11:51 PM,36.0,32.0,86,29.81,10.0,WSW,6.9,-,N/A,,Clear,240,2013-10-24 03:51:00